sensor_id;sensor_type;location;lat;lon;timestamp;P1;durP1;ratioP1;P2;durP2;ratioP2
8464;SDS011;72380;52.680;13.606;2023-11-21T00:01:27;12.50;;;5.30;;
8464;SDS011;72380;52.680;13.606;2023-11-21T00:03:55;14.90;;;6.10;;
8464;SDS011;72380;52.680;13.606;2023-11-21T00:06:22;15.43;;;5.77;;
8464;SDS011;72380;52.680;13.606;2023-11-21T00:08:49;11.93;;;5.83;;
8464;SDS011;72380;52.680;13.606;2023-11-21T00:11:17;14.50;;;7.13;;
8464;SDS011;72380;52.680;13.606;2023-11-21T00:13:44;10.17;;;6.17;;
8464;SDS011;72380;52.680;13.606;2023-11-21T00:16:11;16.40;;;5.80;;
8464;SDS011;72380;52.680;13.606;2023-11-21T00:18:40;17.10;;;6.77;;
8464;SDS011;72380;52.680;13.606;2023-11-21T00:21:08;18.63;;;8.17;;
8464;SDS011;72380;52.680;13.606;2023-11-21T00:23:38;15.33;;;5.97;;
8464;SDS011;72380;52.680;13.606;2023-11-21T00:26:06;20.43;;;8.30;;
8464;SDS011;72380;52.680;13.606;2023-11-21T00:28:33;15.17;;;7.23;;
8464;SDS011;72380;52.680;13.606;2023-11-21T00:31:00;21.13;;;8.03;;
8464;SDS011;72380;52.680;13.606;2023-11-21T00:33:29;26.30;;;8.93;;
8464;SDS011;72380;52.680;13.606;2023-11-21T00:35:58;20.47;;;8.23;;
8464;SDS011;72380;52.680;13.606;2023-11-21T00:38:25;29.20;;;7.47;;
8464;SDS011;72380;52.680;13.606;2023-11-21T00:40:53;28.53;;;9.00;;
8464;SDS011;72380;52.680;13.606;2023-11-21T00:43:21;22.13;;;8.60;;
8464;SDS011;72380;52.680;13.606;2023-11-21T00:45:49;26.40;;;9.73;;
8464;SDS011;72380;52.680;13.606;2023-11-21T00:48:17;25.03;;;9.50;;
8464;SDS011;72380;52.680;13.606;2023-11-21T00:50:44;23.97;;;8.93;;
8464;SDS011;72380;52.680;13.606;2023-11-21T00:53:13;24.43;;;8.47;;
8464;SDS011;72380;52.680;13.606;2023-11-21T00:55:40;33.43;;;9.20;;
8464;SDS011;72380;52.680;13.606;2023-11-21T00:58:07;33.87;;;9.47;;
8464;SDS011;72380;52.680;13.606;2023-11-21T01:00:35;22.97;;;7.53;;
8464;SDS011;72380;52.680;13.606;2023-11-21T01:03:04;26.57;;;7.70;;
8464;SDS011;72380;52.680;13.606;2023-11-21T01:05:33;21.13;;;7.03;;
8464;SDS011;72380;52.680;13.606;2023-11-21T01:08:00;20.67;;;8.07;;
8464;SDS011;72380;52.680;13.606;2023-11-21T01:10:29;28.43;;;9.83;;
8464;SDS011;72380;52.680;13.606;2023-11-21T01:12:56;24.83;;;8.30;;
8464;SDS011;72380;52.680;13.606;2023-11-21T01:15:24;25.93;;;7.67;;
8464;SDS011;72380;52.680;13.606;2023-11-21T01:17:51;14.03;;;5.93;;
8464;SDS011;72380;52.680;13.606;2023-11-21T01:20:18;18.13;;;5.93;;
8464;SDS011;72380;52.680;13.606;2023-11-21T01:22:46;20.70;;;6.67;;
8464;SDS011;72380;52.680;13.606;2023-11-21T01:25:14;17.20;;;7.07;;
8464;SDS011;72380;52.680;13.606;2023-11-21T01:27:43;16.80;;;7.57;;
8464;SDS011;72380;52.680;13.606;2023-11-21T01:30:11;21.53;;;6.83;;
8464;SDS011;72380;52.680;13.606;2023-11-21T01:32:37;16.43;;;5.70;;
8464;SDS011;72380;52.680;13.606;2023-11-21T01:35:06;14.43;;;6.17;;
8464;SDS011;72380;52.680;13.606;2023-11-21T01:37:35;15.47;;;5.80;;
8464;SDS011;72380;52.680;13.606;2023-11-21T01:40:02;15.07;;;4.70;;
8464;SDS011;72380;52.680;13.606;2023-11-21T01:42:33;15.10;;;4.83;;
8464;SDS011;72380;52.680;13.606;2023-11-21T01:45:02;15.20;;;4.57;;
8464;SDS011;72380;52.680;13.606;2023-11-21T01:47:30;17.67;;;4.33;;
8464;SDS011;72380;52.680;13.606;2023-11-21T01:49:58;14.97;;;5.30;;
8464;SDS011;72380;52.680;13.606;2023-11-21T01:52:25;17.83;;;5.07;;
8464;SDS011;72380;52.680;13.606;2023-11-21T01:54:53;9.63;;;3.70;;
8464;SDS011;72380;52.680;13.606;2023-11-21T01:57:20;10.10;;;4.47;;
8464;SDS011;72380;52.680;13.606;2023-11-21T01:59:48;15.57;;;3.50;;
8464;SDS011;72380;52.680;13.606;2023-11-21T02:02:17;11.57;;;5.10;;
8464;SDS011;72380;52.680;13.606;2023-11-21T02:04:44;9.10;;;3.83;;
8464;SDS011;72380;52.680;13.606;2023-11-21T02:07:12;11.63;;;4.13;;
8464;SDS011;72380;52.680;13.606;2023-11-21T02:09:39;8.63;;;4.93;;
8464;SDS011;72380;52.680;13.606;2023-11-21T02:12:07;8.10;;;3.90;;
8464;SDS011;72380;52.680;13.606;2023-11-21T02:14:35;5.73;;;3.37;;
8464;SDS011;72380;52.680;13.606;2023-11-21T02:17:03;8.37;;;3.60;;
8464;SDS011;72380;52.680;13.606;2023-11-21T02:19:31;12.40;;;3.83;;
8464;SDS011;72380;52.680;13.606;2023-11-21T02:21:59;8.67;;;3.63;;
8464;SDS011;72380;52.680;13.606;2023-11-21T02:24:31;5.83;;;3.40;;
8464;SDS011;72380;52.680;13.606;2023-11-21T02:26:58;5.50;;;3.60;;
8464;SDS011;72380;52.680;13.606;2023-11-21T02:29:26;5.43;;;3.13;;
8464;SDS011;72380;52.680;13.606;2023-11-21T02:31:54;6.63;;;3.83;;
8464;SDS011;72380;52.680;13.606;2023-11-21T02:34:22;5.20;;;3.10;;
8464;SDS011;72380;52.680;13.606;2023-11-21T02:36:50;4.97;;;2.90;;
8464;SDS011;72380;52.680;13.606;2023-11-21T02:39:17;7.33;;;3.40;;
8464;SDS011;72380;52.680;13.606;2023-11-21T02:41:48;9.00;;;4.83;;
8464;SDS011;72380;52.680;13.606;2023-11-21T02:44:16;6.47;;;3.40;;
8464;SDS011;72380;52.680;13.606;2023-11-21T02:46:43;5.67;;;3.33;;
8464;SDS011;72380;52.680;13.606;2023-11-21T02:49:10;6.50;;;3.27;;
8464;SDS011;72380;52.680;13.606;2023-11-21T02:51:37;7.33;;;3.40;;
8464;SDS011;72380;52.680;13.606;2023-11-21T02:54:05;5.27;;;3.40;;
8464;SDS011;72380;52.680;13.606;2023-11-21T02:56:33;6.20;;;3.57;;
8464;SDS011;72380;52.680;13.606;2023-11-21T02:59:02;5.43;;;3.13;;
8464;SDS011;72380;52.680;13.606;2023-11-21T03:01:30;6.47;;;3.50;;
8464;SDS011;72380;52.680;13.606;2023-11-21T03:03:57;5.87;;;3.43;;
8464;SDS011;72380;52.680;13.606;2023-11-21T03:06:25;5.43;;;2.80;;
8464;SDS011;72380;52.680;13.606;2023-11-21T03:08:52;5.03;;;3.60;;
8464;SDS011;72380;52.680;13.606;2023-11-21T03:11:19;4.73;;;2.77;;
8464;SDS011;72380;52.680;13.606;2023-11-21T03:13:47;4.87;;;3.17;;
8464;SDS011;72380;52.680;13.606;2023-11-21T03:16:15;11.23;;;4.57;;
8464;SDS011;72380;52.680;13.606;2023-11-21T03:18:44;4.80;;;3.40;;
8464;SDS011;72380;52.680;13.606;2023-11-21T03:21:12;7.10;;;3.40;;
8464;SDS011;72380;52.680;13.606;2023-11-21T03:23:39;5.50;;;3.27;;
8464;SDS011;72380;52.680;13.606;2023-11-21T03:26:06;4.87;;;2.73;;
8464;SDS011;72380;52.680;13.606;2023-11-21T03:28:38;5.27;;;2.90;;
8464;SDS011;72380;52.680;13.606;2023-11-21T03:31:05;5.10;;;2.97;;
8464;SDS011;72380;52.680;13.606;2023-11-21T03:33:35;5.53;;;3.27;;
8464;SDS011;72380;52.680;13.606;2023-11-21T03:36:03;4.30;;;2.70;;
8464;SDS011;72380;52.680;13.606;2023-11-21T03:38:30;5.03;;;2.53;;
8464;SDS011;72380;52.680;13.606;2023-11-21T03:40:57;7.37;;;3.37;;
8464;SDS011;72380;52.680;13.606;2023-11-21T03:43:25;5.73;;;3.20;;
8464;SDS011;72380;52.680;13.606;2023-11-21T03:45:52;5.00;;;3.43;;
8464;SDS011;72380;52.680;13.606;2023-11-21T03:48:19;4.90;;;3.23;;
8464;SDS011;72380;52.680;13.606;2023-11-21T03:50:48;4.63;;;2.70;;
8464;SDS011;72380;52.680;13.606;2023-11-21T03:53:15;2.80;;;2.10;;
8464;SDS011;72380;52.680;13.606;2023-11-21T03:55:42;4.57;;;3.03;;
8464;SDS011;72380;52.680;13.606;2023-11-21T03:58:10;4.83;;;2.33;;
8464;SDS011;72380;52.680;13.606;2023-11-21T04:00:37;4.13;;;2.30;;
8464;SDS011;72380;52.680;13.606;2023-11-21T04:03:05;5.87;;;3.13;;
8464;SDS011;72380;52.680;13.606;2023-11-21T04:05:32;4.40;;;2.50;;
8464;SDS011;72380;52.680;13.606;2023-11-21T04:08:01;4.20;;;3.07;;
8464;SDS011;72380;52.680;13.606;2023-11-21T04:10:28;6.47;;;3.23;;
8464;SDS011;72380;52.680;13.606;2023-11-21T04:12:55;4.87;;;3.20;;
8464;SDS011;72380;52.680;13.606;2023-11-21T04:15:23;5.90;;;3.50;;
8464;SDS011;72380;52.680;13.606;2023-11-21T04:17:50;6.50;;;3.13;;
8464;SDS011;72380;52.680;13.606;2023-11-21T04:20:17;4.57;;;2.60;;
8464;SDS011;72380;52.680;13.606;2023-11-21T04:22:45;3.73;;;2.53;;
8464;SDS011;72380;52.680;13.606;2023-11-21T04:25:14;3.90;;;2.03;;
8464;SDS011;72380;52.680;13.606;2023-11-21T04:27:43;4.73;;;2.67;;
8464;SDS011;72380;52.680;13.606;2023-11-21T04:30:11;4.53;;;2.47;;
8464;SDS011;72380;52.680;13.606;2023-11-21T04:32:38;4.70;;;2.50;;
8464;SDS011;72380;52.680;13.606;2023-11-21T04:35:07;6.20;;;2.63;;
8464;SDS011;72380;52.680;13.606;2023-11-21T04:37:34;5.80;;;3.30;;
8464;SDS011;72380;52.680;13.606;2023-11-21T04:40:01;3.70;;;1.97;;
8464;SDS011;72380;52.680;13.606;2023-11-21T04:42:35;5.07;;;2.97;;
8464;SDS011;72380;52.680;13.606;2023-11-21T04:45:03;3.87;;;2.10;;
8464;SDS011;72380;52.680;13.606;2023-11-21T04:47:34;3.83;;;2.17;;
8464;SDS011;72380;52.680;13.606;2023-11-21T04:50:01;3.00;;;1.80;;
8464;SDS011;72380;52.680;13.606;2023-11-21T04:52:29;4.33;;;2.83;;
8464;SDS011;72380;52.680;13.606;2023-11-21T04:54:58;3.73;;;2.17;;
8464;SDS011;72380;52.680;13.606;2023-11-21T04:57:27;2.50;;;1.93;;
8464;SDS011;72380;52.680;13.606;2023-11-21T04:59:56;3.07;;;2.03;;
8464;SDS011;72380;52.680;13.606;2023-11-21T05:02:23;3.47;;;2.27;;
8464;SDS011;72380;52.680;13.606;2023-11-21T05:04:50;4.60;;;2.13;;
8464;SDS011;72380;52.680;13.606;2023-11-21T05:07:18;5.10;;;2.70;;
8464;SDS011;72380;52.680;13.606;2023-11-21T05:09:46;4.97;;;2.03;;
8464;SDS011;72380;52.680;13.606;2023-11-21T05:12:13;5.13;;;2.20;;
8464;SDS011;72380;52.680;13.606;2023-11-21T05:14:40;3.07;;;2.10;;
8464;SDS011;72380;52.680;13.606;2023-11-21T05:17:10;3.60;;;2.20;;
8464;SDS011;72380;52.680;13.606;2023-11-21T05:19:37;3.50;;;2.13;;
8464;SDS011;72380;52.680;13.606;2023-11-21T05:22:05;3.17;;;2.40;;
8464;SDS011;72380;52.680;13.606;2023-11-21T05:24:33;2.83;;;1.80;;
8464;SDS011;72380;52.680;13.606;2023-11-21T05:27:01;3.20;;;1.87;;
8464;SDS011;72380;52.680;13.606;2023-11-21T05:29:28;3.67;;;2.37;;
8464;SDS011;72380;52.680;13.606;2023-11-21T05:31:55;2.60;;;2.30;;
8464;SDS011;72380;52.680;13.606;2023-11-21T05:34:24;4.70;;;2.93;;
8464;SDS011;72380;52.680;13.606;2023-11-21T05:36:51;2.60;;;1.70;;
8464;SDS011;72380;52.680;13.606;2023-11-21T05:39:19;2.93;;;2.43;;
8464;SDS011;72380;52.680;13.606;2023-11-21T05:41:47;22.90;;;2.63;;
8464;SDS011;72380;52.680;13.606;2023-11-21T05:44:15;3.47;;;2.30;;
8464;SDS011;72380;52.680;13.606;2023-11-21T05:46:42;2.30;;;1.87;;
8464;SDS011;72380;52.680;13.606;2023-11-21T05:49:09;3.37;;;2.37;;
8464;SDS011;72380;52.680;13.606;2023-11-21T05:51:38;3.80;;;2.30;;
8464;SDS011;72380;52.680;13.606;2023-11-21T05:54:05;2.50;;;1.80;;
8464;SDS011;72380;52.680;13.606;2023-11-21T05:56:33;3.40;;;2.47;;
8464;SDS011;72380;52.680;13.606;2023-11-21T05:59:00;3.23;;;2.30;;
8464;SDS011;72380;52.680;13.606;2023-11-21T06:01:28;2.77;;;2.33;;
8464;SDS011;72380;52.680;13.606;2023-11-21T06:03:56;2.80;;;1.60;;
8464;SDS011;72380;52.680;13.606;2023-11-21T06:06:24;3.83;;;2.00;;
8464;SDS011;72380;52.680;13.606;2023-11-21T06:08:52;4.40;;;2.73;;
8464;SDS011;72380;52.680;13.606;2023-11-21T06:11:20;4.43;;;2.63;;
8464;SDS011;72380;52.680;13.606;2023-11-21T06:13:48;5.70;;;2.10;;
8464;SDS011;72380;52.680;13.606;2023-11-21T06:16:15;1.63;;;1.40;;
8464;SDS011;72380;52.680;13.606;2023-11-21T06:18:44;3.20;;;2.20;;
8464;SDS011;72380;52.680;13.606;2023-11-21T06:21:12;3.83;;;2.07;;
8464;SDS011;72380;52.680;13.606;2023-11-21T06:23:42;5.83;;;2.20;;
8464;SDS011;72380;52.680;13.606;2023-11-21T06:26:10;2.90;;;1.90;;
8464;SDS011;72380;52.680;13.606;2023-11-21T06:28:38;3.03;;;2.23;;
8464;SDS011;72380;52.680;13.606;2023-11-21T06:31:06;4.70;;;2.30;;
8464;SDS011;72380;52.680;13.606;2023-11-21T06:33:33;3.63;;;2.50;;
8464;SDS011;72380;52.680;13.606;2023-11-21T06:36:01;3.73;;;2.10;;
8464;SDS011;72380;52.680;13.606;2023-11-21T06:38:28;3.27;;;1.93;;
8464;SDS011;72380;52.680;13.606;2023-11-21T06:40:57;3.37;;;1.70;;
8464;SDS011;72380;52.680;13.606;2023-11-21T06:43:28;5.97;;;4.53;;
8464;SDS011;72380;52.680;13.606;2023-11-21T06:45:56;4.50;;;2.80;;
8464;SDS011;72380;52.680;13.606;2023-11-21T06:48:23;3.13;;;2.20;;
8464;SDS011;72380;52.680;13.606;2023-11-21T06:50:51;2.93;;;1.77;;
8464;SDS011;72380;52.680;13.606;2023-11-21T06:53:18;3.10;;;1.97;;
8464;SDS011;72380;52.680;13.606;2023-11-21T06:55:45;3.03;;;1.90;;
8464;SDS011;72380;52.680;13.606;2023-11-21T06:58:13;2.97;;;2.37;;
8464;SDS011;72380;52.680;13.606;2023-11-21T07:00:42;5.33;;;2.47;;
8464;SDS011;72380;52.680;13.606;2023-11-21T07:03:12;2.73;;;1.60;;
8464;SDS011;72380;52.680;13.606;2023-11-21T07:05:39;1.83;;;1.70;;
8464;SDS011;72380;52.680;13.606;2023-11-21T07:08:06;3.40;;;1.83;;
8464;SDS011;72380;52.680;13.606;2023-11-21T07:10:34;3.83;;;2.37;;
8464;SDS011;72380;52.680;13.606;2023-11-21T07:13:02;3.77;;;2.43;;
8464;SDS011;72380;52.680;13.606;2023-11-21T07:15:29;3.90;;;2.27;;
8464;SDS011;72380;52.680;13.606;2023-11-21T07:17:57;3.43;;;2.17;;
8464;SDS011;72380;52.680;13.606;2023-11-21T07:20:25;5.53;;;2.83;;
8464;SDS011;72380;52.680;13.606;2023-11-21T07:22:53;2.47;;;2.03;;
8464;SDS011;72380;52.680;13.606;2023-11-21T07:25:21;4.43;;;2.47;;
8464;SDS011;72380;52.680;13.606;2023-11-21T07:27:48;9.53;;;3.90;;
8464;SDS011;72380;52.680;13.606;2023-11-21T07:30:15;6.27;;;2.07;;
8464;SDS011;72380;52.680;13.606;2023-11-21T07:32:43;4.77;;;2.57;;
8464;SDS011;72380;52.680;13.606;2023-11-21T07:35:14;3.97;;;2.50;;
8464;SDS011;72380;52.680;13.606;2023-11-21T07:37:41;6.80;;;3.27;;
8464;SDS011;72380;52.680;13.606;2023-11-21T07:40:09;8.03;;;3.33;;
8464;SDS011;72380;52.680;13.606;2023-11-21T07:42:37;4.03;;;2.27;;
8464;SDS011;72380;52.680;13.606;2023-11-21T07:45:05;6.10;;;3.20;;
8464;SDS011;72380;52.680;13.606;2023-11-21T07:47:35;5.33;;;2.77;;
8464;SDS011;72380;52.680;13.606;2023-11-21T07:50:04;5.67;;;2.47;;
8464;SDS011;72380;52.680;13.606;2023-11-21T07:52:34;6.47;;;2.23;;
8464;SDS011;72380;52.680;13.606;2023-11-21T07:55:01;7.60;;;3.07;;
8464;SDS011;72380;52.680;13.606;2023-11-21T07:57:28;7.53;;;2.57;;
8464;SDS011;72380;52.680;13.606;2023-11-21T07:59:56;6.93;;;2.97;;
8464;SDS011;72380;52.680;13.606;2023-11-21T08:02:23;8.13;;;2.83;;
8464;SDS011;72380;52.680;13.606;2023-11-21T08:04:51;5.50;;;3.27;;
8464;SDS011;72380;52.680;13.606;2023-11-21T08:07:18;8.23;;;3.43;;
8464;SDS011;72380;52.680;13.606;2023-11-21T08:09:47;6.30;;;3.20;;
8464;SDS011;72380;52.680;13.606;2023-11-21T08:12:15;13.27;;;4.00;;
8464;SDS011;72380;52.680;13.606;2023-11-21T08:14:43;7.93;;;3.77;;
8464;SDS011;72380;52.680;13.606;2023-11-21T08:17:10;7.30;;;3.33;;
8464;SDS011;72380;52.680;13.606;2023-11-21T08:19:37;7.90;;;3.73;;
8464;SDS011;72380;52.680;13.606;2023-11-21T08:22:04;13.07;;;3.73;;
8464;SDS011;72380;52.680;13.606;2023-11-21T08:24:33;11.33;;;4.57;;
8464;SDS011;72380;52.680;13.606;2023-11-21T08:27:02;14.17;;;4.30;;
8464;SDS011;72380;52.680;13.606;2023-11-21T08:29:32;10.07;;;3.87;;
8464;SDS011;72380;52.680;13.606;2023-11-21T08:31:59;16.70;;;3.40;;
8464;SDS011;72380;52.680;13.606;2023-11-21T08:34:27;9.37;;;3.70;;
8464;SDS011;72380;52.680;13.606;2023-11-21T08:36:55;8.80;;;3.67;;
8464;SDS011;72380;52.680;13.606;2023-11-21T08:39:22;11.77;;;3.57;;
8464;SDS011;72380;52.680;13.606;2023-11-21T08:41:52;9.87;;;4.00;;
8464;SDS011;72380;52.680;13.606;2023-11-21T08:44:20;9.97;;;2.70;;
8464;SDS011;72380;52.680;13.606;2023-11-21T08:46:48;5.00;;;2.40;;
8464;SDS011;72380;52.680;13.606;2023-11-21T08:49:15;4.23;;;1.47;;
8464;SDS011;72380;52.680;13.606;2023-11-21T08:51:43;4.40;;;1.73;;
8464;SDS011;72380;52.680;13.606;2023-11-21T08:54:11;1.97;;;1.50;;
8464;SDS011;72380;52.680;13.606;2023-11-21T08:56:38;2.13;;;1.50;;
8464;SDS011;72380;52.680;13.606;2023-11-21T08:59:06;2.17;;;1.60;;
8464;SDS011;72380;52.680;13.606;2023-11-21T09:01:34;4.33;;;1.43;;
8464;SDS011;72380;52.680;13.606;2023-11-21T09:04:01;4.47;;;1.70;;
8464;SDS011;72380;52.680;13.606;2023-11-21T09:06:29;1.20;;;1.10;;
8464;SDS011;72380;52.680;13.606;2023-11-21T09:08:56;2.53;;;1.50;;
8464;SDS011;72380;52.680;13.606;2023-11-21T09:11:23;1.30;;;1.20;;
8464;SDS011;72380;52.680;13.606;2023-11-21T09:13:52;1.57;;;1.13;;
8464;SDS011;72380;52.680;13.606;2023-11-21T09:16:20;1.20;;;1.10;;
8464;SDS011;72380;52.680;13.606;2023-11-21T09:18:48;1.33;;;1.10;;
8464;SDS011;72380;52.680;13.606;2023-11-21T09:21:15;1.03;;;1.00;;
8464;SDS011;72380;52.680;13.606;2023-11-21T09:23:43;2.90;;;1.40;;
8464;SDS011;72380;52.680;13.606;2023-11-21T09:26:11;0.80;;;0.80;;
8464;SDS011;72380;52.680;13.606;2023-11-21T09:28:39;0.93;;;0.87;;
8464;SDS011;72380;52.680;13.606;2023-11-21T09:31:09;1.40;;;1.30;;
8464;SDS011;72380;52.680;13.606;2023-11-21T09:33:37;1.37;;;1.27;;
8464;SDS011;72380;52.680;13.606;2023-11-21T09:36:10;1.93;;;1.40;;
8464;SDS011;72380;52.680;13.606;2023-11-21T09:38:38;1.80;;;1.33;;
8464;SDS011;72380;52.680;13.606;2023-11-21T09:41:08;1.33;;;1.20;;
8464;SDS011;72380;52.680;13.606;2023-11-21T09:43:43;3.50;;;1.30;;
8464;SDS011;72380;52.680;13.606;2023-11-21T09:46:11;2.23;;;1.40;;
8464;SDS011;72380;52.680;13.606;2023-11-21T09:48:46;1.80;;;1.50;;
8464;SDS011;72380;52.680;13.606;2023-11-21T09:51:15;2.03;;;1.53;;
8464;SDS011;72380;52.680;13.606;2023-11-21T09:53:45;1.70;;;1.03;;
8464;SDS011;72380;52.680;13.606;2023-11-21T09:56:13;1.40;;;1.30;;
8464;SDS011;72380;52.680;13.606;2023-11-21T09:58:44;1.10;;;0.90;;
8464;SDS011;72380;52.680;13.606;2023-11-21T10:01:12;1.43;;;1.30;;
8464;SDS011;72380;52.680;13.606;2023-11-21T10:03:40;1.77;;;1.17;;
8464;SDS011;72380;52.680;13.606;2023-11-21T10:06:08;1.20;;;1.10;;
8464;SDS011;72380;52.680;13.606;2023-11-21T10:08:38;1.80;;;1.43;;
8464;SDS011;72380;52.680;13.606;2023-11-21T10:11:05;1.50;;;1.40;;
8464;SDS011;72380;52.680;13.606;2023-11-21T10:13:36;1.33;;;1.17;;
8464;SDS011;72380;52.680;13.606;2023-11-21T10:16:04;2.17;;;1.80;;
8464;SDS011;72380;52.680;13.606;2023-11-21T10:18:32;1.87;;;1.60;;
8464;SDS011;72380;52.680;13.606;2023-11-21T10:21:00;1.30;;;1.10;;
8464;SDS011;72380;52.680;13.606;2023-11-21T10:23:29;2.87;;;1.40;;
8464;SDS011;72380;52.680;13.606;2023-11-21T10:25:57;1.60;;;1.50;;
8464;SDS011;72380;52.680;13.606;2023-11-21T10:28:26;3.60;;;1.63;;
8464;SDS011;72380;52.680;13.606;2023-11-21T10:30:53;2.67;;;1.77;;
8464;SDS011;72380;52.680;13.606;2023-11-21T10:33:26;2.57;;;1.53;;
8464;SDS011;72380;52.680;13.606;2023-11-21T10:35:54;1.93;;;1.53;;
8464;SDS011;72380;52.680;13.606;2023-11-21T10:38:21;2.90;;;2.00;;
8464;SDS011;72380;52.680;13.606;2023-11-21T10:40:49;1.70;;;1.47;;
8464;SDS011;72380;52.680;13.606;2023-11-21T10:43:19;3.60;;;1.90;;
8464;SDS011;72380;52.680;13.606;2023-11-21T10:45:46;3.67;;;1.80;;
8464;SDS011;72380;52.680;13.606;2023-11-21T10:48:14;2.67;;;1.90;;
8464;SDS011;72380;52.680;13.606;2023-11-21T10:50:42;12.37;;;1.50;;
8464;SDS011;72380;52.680;13.606;2023-11-21T10:53:09;2.67;;;1.73;;
8464;SDS011;72380;52.680;13.606;2023-11-21T10:55:38;1.33;;;1.23;;
8464;SDS011;72380;52.680;13.606;2023-11-21T10:58:06;4.00;;;1.60;;
8464;SDS011;72380;52.680;13.606;2023-11-21T11:00:37;1.93;;;1.60;;
8464;SDS011;72380;52.680;13.606;2023-11-21T11:03:06;2.07;;;1.73;;
8464;SDS011;72380;52.680;13.606;2023-11-21T11:05:39;4.20;;;2.07;;
8464;SDS011;72380;52.680;13.606;2023-11-21T11:08:08;2.77;;;2.00;;
8464;SDS011;72380;52.680;13.606;2023-11-21T11:10:36;1.70;;;1.60;;
8464;SDS011;72380;52.680;13.606;2023-11-21T11:13:03;1.87;;;1.57;;
8464;SDS011;72380;52.680;13.606;2023-11-21T11:15:31;3.20;;;1.77;;
8464;SDS011;72380;52.680;13.606;2023-11-21T11:18:00;1.53;;;1.30;;
8464;SDS011;72380;52.680;13.606;2023-11-21T11:20:30;2.97;;;2.77;;
8464;SDS011;72380;52.680;13.606;2023-11-21T11:23:04;1.60;;;1.23;;
8464;SDS011;72380;52.680;13.606;2023-11-21T11:25:39;2.27;;;1.53;;
8464;SDS011;72380;52.680;13.606;2023-11-21T11:28:12;1.23;;;1.13;;
8464;SDS011;72380;52.680;13.606;2023-11-21T11:30:48;1.40;;;1.30;;
8464;SDS011;72380;52.680;13.606;2023-11-21T11:33:21;1.60;;;1.40;;
8464;SDS011;72380;52.680;13.606;2023-11-21T11:35:54;1.53;;;1.33;;
8464;SDS011;72380;52.680;13.606;2023-11-21T11:38:22;1.63;;;1.50;;
8464;SDS011;72380;52.680;13.606;2023-11-21T11:40:52;2.00;;;1.53;;
8464;SDS011;72380;52.680;13.606;2023-11-21T11:43:24;1.30;;;1.17;;
8464;SDS011;72380;52.680;13.606;2023-11-21T11:45:52;1.83;;;1.40;;
8464;SDS011;72380;52.680;13.606;2023-11-21T11:48:21;1.67;;;1.37;;
8464;SDS011;72380;52.680;13.606;2023-11-21T11:51:01;1.47;;;1.30;;
8464;SDS011;72380;52.680;13.606;2023-11-21T11:53:33;1.47;;;1.30;;
8464;SDS011;72380;52.680;13.606;2023-11-21T11:58:42;2.00;;;1.40;;
8464;SDS011;72380;52.680;13.606;2023-11-21T12:01:10;1.70;;;1.60;;
8464;SDS011;72380;52.680;13.606;2023-11-21T12:03:40;1.47;;;1.23;;
8464;SDS011;72380;52.680;13.606;2023-11-21T12:06:07;3.33;;;2.40;;
8464;SDS011;72380;52.680;13.606;2023-11-21T12:08:37;2.10;;;1.87;;
8464;SDS011;72380;52.680;13.606;2023-11-21T12:11:04;1.67;;;1.47;;
8464;SDS011;72380;52.680;13.606;2023-11-21T12:13:32;2.40;;;1.90;;
8464;SDS011;72380;52.680;13.606;2023-11-21T12:15:59;2.53;;;1.90;;
8464;SDS011;72380;52.680;13.606;2023-11-21T12:18:26;1.80;;;1.70;;
8464;SDS011;72380;52.680;13.606;2023-11-21T12:20:55;3.37;;;2.27;;
8464;SDS011;72380;52.680;13.606;2023-11-21T12:23:22;2.00;;;1.53;;
8464;SDS011;72380;52.680;13.606;2023-11-21T12:25:50;4.63;;;1.93;;
8464;SDS011;72380;52.680;13.606;2023-11-21T12:28:18;1.40;;;1.20;;
8464;SDS011;72380;52.680;13.606;2023-11-21T12:30:47;1.63;;;1.53;;
8464;SDS011;72380;52.680;13.606;2023-11-21T12:33:14;2.63;;;1.93;;
8464;SDS011;72380;52.680;13.606;2023-11-21T12:35:43;2.07;;;1.90;;
8464;SDS011;72380;52.680;13.606;2023-11-21T12:38:11;2.83;;;2.10;;
8464;SDS011;72380;52.680;13.606;2023-11-21T12:40:38;2.07;;;1.73;;
8464;SDS011;72380;52.680;13.606;2023-11-21T12:43:06;2.13;;;1.93;;
8464;SDS011;72380;52.680;13.606;2023-11-21T12:45:34;2.40;;;2.20;;
8464;SDS011;72380;52.680;13.606;2023-11-21T12:48:04;3.60;;;2.00;;
8464;SDS011;72380;52.680;13.606;2023-11-21T12:50:35;1.97;;;1.83;;
8464;SDS011;72380;52.680;13.606;2023-11-21T12:53:03;2.67;;;2.00;;
8464;SDS011;72380;52.680;13.606;2023-11-21T12:55:32;2.67;;;1.90;;
8464;SDS011;72380;52.680;13.606;2023-11-21T12:58:03;3.67;;;2.27;;
8464;SDS011;72380;52.680;13.606;2023-11-21T13:00:35;5.80;;;3.13;;
8464;SDS011;72380;52.680;13.606;2023-11-21T13:03:03;1.87;;;1.67;;
8464;SDS011;72380;52.680;13.606;2023-11-21T13:05:32;9.53;;;2.10;;
8464;SDS011;72380;52.680;13.606;2023-11-21T13:08:01;2.83;;;1.90;;
8464;SDS011;72380;52.680;13.606;2023-11-21T13:10:29;3.73;;;2.23;;
8464;SDS011;72380;52.680;13.606;2023-11-21T13:12:59;4.43;;;2.57;;
8464;SDS011;72380;52.680;13.606;2023-11-21T13:15:26;3.60;;;2.10;;
8464;SDS011;72380;52.680;13.606;2023-11-21T13:17:54;4.37;;;3.10;;
8464;SDS011;72380;52.680;13.606;2023-11-21T13:20:23;3.93;;;2.70;;
8464;SDS011;72380;52.680;13.606;2023-11-21T13:22:51;6.10;;;3.33;;
8464;SDS011;72380;52.680;13.606;2023-11-21T13:25:20;4.63;;;2.77;;
8464;SDS011;72380;52.680;13.606;2023-11-21T13:27:47;4.97;;;3.10;;
8464;SDS011;72380;52.680;13.606;2023-11-21T13:30:16;12.27;;;4.90;;
8464;SDS011;72380;52.680;13.606;2023-11-21T13:32:48;5.23;;;3.27;;
8464;SDS011;72380;52.680;13.606;2023-11-21T13:35:17;5.27;;;2.97;;
8464;SDS011;72380;52.680;13.606;2023-11-21T13:37:47;5.03;;;3.73;;
8464;SDS011;72380;52.680;13.606;2023-11-21T13:40:19;6.53;;;4.03;;
8464;SDS011;72380;52.680;13.606;2023-11-21T13:42:48;6.87;;;4.00;;
8464;SDS011;72380;52.680;13.606;2023-11-21T13:45:20;7.93;;;5.07;;
8464;SDS011;72380;52.680;13.606;2023-11-21T13:47:48;9.07;;;4.77;;
8464;SDS011;72380;52.680;13.606;2023-11-21T13:50:17;8.80;;;5.10;;
8464;SDS011;72380;52.680;13.606;2023-11-21T13:52:48;10.23;;;4.23;;
8464;SDS011;72380;52.680;13.606;2023-11-21T13:55:18;9.00;;;5.70;;
8464;SDS011;72380;52.680;13.606;2023-11-21T13:57:49;10.17;;;5.60;;
8464;SDS011;72380;52.680;13.606;2023-11-21T14:00:17;9.93;;;6.27;;
8464;SDS011;72380;52.680;13.606;2023-11-21T14:03:08;12.30;;;5.43;;
8464;SDS011;72380;52.680;13.606;2023-11-21T14:05:42;12.73;;;4.40;;
8464;SDS011;72380;52.680;13.606;2023-11-21T14:08:11;9.03;;;5.40;;
8464;SDS011;72380;52.680;13.606;2023-11-21T14:10:42;10.63;;;5.93;;
8464;SDS011;72380;52.680;13.606;2023-11-21T14:13:12;10.03;;;4.93;;
8464;SDS011;72380;52.680;13.606;2023-11-21T14:15:42;11.70;;;5.93;;
8464;SDS011;72380;52.680;13.606;2023-11-21T14:18:12;8.33;;;5.10;;
8464;SDS011;72380;52.680;13.606;2023-11-21T14:20:42;10.63;;;5.40;;
8464;SDS011;72380;52.680;13.606;2023-11-21T14:23:10;8.20;;;4.47;;
8464;SDS011;72380;52.680;13.606;2023-11-21T14:25:37;9.07;;;5.27;;
8464;SDS011;72380;52.680;13.606;2023-11-21T14:28:07;8.90;;;4.17;;
8464;SDS011;72380;52.680;13.606;2023-11-21T14:30:37;13.73;;;5.77;;
8464;SDS011;72380;52.680;13.606;2023-11-21T14:33:05;10.07;;;4.93;;
8464;SDS011;72380;52.680;13.606;2023-11-21T14:35:35;9.30;;;4.70;;
8464;SDS011;72380;52.680;13.606;2023-11-21T14:38:02;9.07;;;5.60;;
8464;SDS011;72380;52.680;13.606;2023-11-21T14:40:30;8.67;;;4.33;;
8464;SDS011;72380;52.680;13.606;2023-11-21T14:42:59;7.10;;;4.13;;
8464;SDS011;72380;52.680;13.606;2023-11-21T14:45:26;9.53;;;5.83;;
8464;SDS011;72380;52.680;13.606;2023-11-21T14:47:54;7.10;;;4.63;;
8464;SDS011;72380;52.680;13.606;2023-11-21T14:50:31;7.90;;;4.33;;
8464;SDS011;72380;52.680;13.606;2023-11-21T14:53:32;9.53;;;5.30;;
8464;SDS011;72380;52.680;13.606;2023-11-21T14:56:16;7.30;;;4.27;;